Time;durP1;ratioP1;P1;durP2;ratioP2;P2;SDS_P1;SDS_P2;PMS_P1;PMS_P2;Temp;Humidity;BMP_temperature;BMP_pressure;BME280_temperature;BME280_humidity;BME280_pressure;Samples;Min_cycle;Max_cycle;Signal;HPM_P1;HPM_P2
2021/01/27 00:00:28;;;;;;;20.58;11.32;;;3.60;99.90;;;;;;5073607;28;20024;-77
2021/01/27 00:02:54;;;;;;;19.92;10.95;;;3.50;99.90;;;;;;5073575;28;20055;-77
2021/01/27 00:05:25;;;;;;;18.77;10.38;;;3.50;99.90;;;;;;5073653;28;20021;-77
2021/01/27 00:07:50;;;;;;;17.42;10.23;;;3.40;99.90;;;;;;5073377;28;20048;-77
2021/01/27 00:10:16;;;;;;;17.42;10.57;;;3.40;99.90;;;;;;5045433;28;20018;-77
2021/01/27 00:12:42;;;;;;;18.98;11.45;;;3.30;99.90;;;;;;5052908;28;20033;-77
2021/01/27 00:15:12;;;;;;;17.15;10.93;;;3.40;99.90;;;;;;5035145;28;20036;-78
2021/01/27 00:17:37;;;;;;;17.00;11.25;;;3.40;99.90;;;;;;5053056;28;20058;-77
2021/01/27 00:20:06;;;;;;;17.75;11.23;;;3.40;99.90;;;;;;5034955;28;20104;-77
2021/01/27 00:22:31;;;;;;;20.67;11.93;;;3.50;99.90;;;;;;5052318;28;20021;-77
2021/01/27 00:24:57;;;;;;;16.25;10.70;;;3.50;99.90;;;;;;5052971;28;20381;-77
2021/01/27 00:27:23;;;;;;;16.73;10.68;;;3.50;99.90;;;;;;5053859;28;20024;-78
2021/01/27 00:29:48;;;;;;;18.75;10.15;;;3.60;99.90;;;;;;5052079;28;20040;-77
2021/01/27 00:32:14;;;;;;;19.00;10.88;;;3.50;99.90;;;;;;5034793;28;20032;-77
2021/01/27 00:34:40;;;;;;;16.42;9.75;;;3.50;99.90;;;;;;5052692;28;20027;-77
2021/01/27 00:37:05;;;;;;;14.85;9.30;;;3.50;99.90;;;;;;5058607;28;20024;-78
2021/01/27 00:39:31;;;;;;;13.45;9.00;;;3.50;99.90;;;;;;5052945;28;20071;-79
2021/01/27 00:41:57;;;;;;;14.40;9.30;;;3.40;99.90;;;;;;5052480;28;20017;-77
2021/01/27 00:44:22;;;;;;;21.23;9.90;;;3.40;99.90;;;;;;5052096;28;20075;-77
2021/01/27 00:46:48;;;;;;;12.70;8.50;;;3.40;99.90;;;;;;5052564;28;20053;-79
2021/01/27 00:49:14;;;;;;;13.45;8.48;;;3.40;99.90;;;;;;5052499;28;20424;-77
2021/01/27 00:51:39;;;;;;;13.15;8.77;;;3.30;99.90;;;;;;5052257;28;20045;-77
2021/01/27 00:54:05;;;;;;;14.07;8.90;;;3.40;99.90;;;;;;5034402;28;20538;-77
2021/01/27 00:56:31;;;;;;;18.27;10.02;;;3.40;99.90;;;;;;5052146;28;20024;-78
2021/01/27 00:58:56;;;;;;;16.35;10.10;;;3.40;99.90;;;;;;5048955;28;20163;-77
2021/01/27 01:01:22;;;;;;;14.85;9.48;;;3.40;99.90;;;;;;5072541;28;20012;-77
2021/01/27 01:03:48;;;;;;;15.63;9.05;;;3.50;99.90;;;;;;5063394;28;20044;-77
2021/01/27 01:06:13;;;;;;;17.75;9.93;;;3.40;99.90;;;;;;5056823;28;20019;-78
2021/01/27 01:08:39;;;;;;;15.70;9.38;;;3.40;99.90;;;;;;5059474;28;20055;-78
2021/01/27 01:11:05;;;;;;;13.23;8.52;;;3.30;99.90;;;;;;5051215;28;20025;-78
2021/01/27 01:13:32;;;;;;;14.88;9.05;;;3.30;99.90;;;;;;5051674;28;20044;-77
2021/01/27 01:15:58;;;;;;;14.23;8.98;;;3.30;99.90;;;;;;5052660;28;20028;-79
2021/01/27 01:18:25;;;;;;;13.43;7.88;;;3.30;99.90;;;;;;5044373;28;20071;-80
2021/01/27 01:20:51;;;;;;;11.75;7.95;;;3.40;99.90;;;;;;5051610;28;20017;-79
2021/01/27 01:23:19;;;;;;;20.00;8.90;;;3.30;99.90;;;;;;5051007;28;20048;-78
2021/01/27 01:25:45;;;;;;;12.80;8.20;;;3.40;99.90;;;;;;5048416;28;20052;-77
2021/01/27 01:28:10;;;;;;;12.38;8.25;;;3.40;99.90;;;;;;5051127;28;20065;-79
2021/01/27 01:30:39;;;;;;;11.55;7.75;;;3.40;99.90;;;;;;5051794;28;20040;-78
2021/01/27 01:33:17;;;;;;;13.32;8.48;;;3.40;99.90;;;;;;5051007;28;20055;-79
2021/01/27 01:35:44;;;;;;;12.10;7.50;;;3.40;99.90;;;;;;5051167;28;20028;-81
2021/01/27 01:38:10;;;;;;;15.50;6.93;;;3.40;99.90;;;;;;5051221;28;20033;-78
2021/01/27 01:40:49;;;;;;;11.38;7.15;;;3.40;99.90;;;;;;5053240;28;20025;-78
2021/01/27 01:43:24;;;;;;;13.35;7.32;;;3.40;99.90;;;;;;5057774;28;20025;-78
2021/01/27 01:45:56;;;;;;;10.07;7.10;;;3.30;99.90;;;;;;5058078;28;20025;-81
2021/01/27 01:48:32;;;;;;;11.77;7.35;;;3.30;99.90;;;;;;5042479;28;20389;-77
2021/01/27 01:51:10;;;;;;;11.77;7.07;;;3.30;99.90;;;;;;5058182;28;20049;-77
2021/01/27 01:53:36;;;;;;;10.10;6.93;;;3.30;99.90;;;;;;5058183;28;20013;-78
2021/01/27 01:56:06;;;;;;;11.40;7.45;;;3.40;99.90;;;;;;5058297;28;20531;-77
2021/01/27 01:58:33;;;;;;;11.05;7.40;;;3.40;99.90;;;;;;5057612;28;20207;-79
2021/01/27 02:01:00;;;;;;;13.80;7.85;;;3.40;99.90;;;;;;5057937;28;20048;-78
2021/01/27 02:03:32;;;;;;;10.27;6.88;;;3.40;99.90;;;;;;5057725;28;20025;-78
2021/01/27 02:06:00;;;;;;;12.40;7.50;;;3.40;99.90;;;;;;5057994;28;20060;-77
2021/01/27 02:08:28;;;;;;;12.93;7.25;;;3.40;99.90;;;;;;5057962;28;20027;-78
2021/01/27 02:10:54;;;;;;;9.95;6.90;;;3.50;99.90;;;;;;5058049;28;20096;-78
2021/01/27 02:13:25;;;;;;;9.85;6.60;;;3.50;99.90;;;;;;5057010;28;20021;-77
2021/01/27 02:16:14;;;;;;;14.05;7.10;;;3.50;99.90;;;;;;5057237;28;20100;-78
2021/01/27 02:19:00;;;;;;;9.60;6.50;;;3.40;99.90;;;;;;5039849;28;20486;-78
2021/01/27 02:21:26;;;;;;;11.25;7.15;;;3.40;99.90;;;;;;5057347;28;20033;-78
2021/01/27 02:24:22;;;;;;;8.15;6.35;;;3.40;99.90;;;;;;5057749;28;20074;-78
2021/01/27 02:26:54;;;;;;;11.57;7.13;;;3.40;99.90;;;;;;5057183;28;20049;-77
2021/01/27 02:30:00;;;;;;;9.80;6.63;;;3.50;99.90;;;;;;5058073;28;20021;-77
2021/01/27 02:33:03;;;;;;;11.65;6.75;;;3.40;99.90;;;;;;5057832;28;20052;-78
2021/01/27 02:35:38;;;;;;;12.40;6.47;;;3.40;99.90;;;;;;5057711;28;20021;-78
2021/01/27 02:38:44;;;;;;;13.20;7.18;;;3.40;99.90;;;;;;5057941;28;20095;-77
2021/01/27 02:41:17;;;;;;;8.90;6.45;;;3.40;99.90;;;;;;5003118;28;20037;-78
2021/01/27 02:43:48;;;;;;;10.73;7.35;;;3.30;99.90;;;;;;5057897;28;20028;-80
2021/01/27 02:46:37;;;;;;;11.75;7.50;;;3.20;99.90;;;;;;5044477;28;20040;-78
2021/01/27 02:49:38;;;;;;;9.82;6.22;;;3.20;99.90;;;;;;5034971;28;20025;-78
2021/01/27 02:52:09;;;;;;;12.38;7.97;;;3.20;99.90;;;;;;5029692;28;20139;-79
2021/01/27 02:54:50;;;;;;;12.00;7.43;;;3.20;99.90;;;;;;5054446;28;20377;-76
2021/01/27 02:57:40;;;;;;;9.85;6.47;;;3.20;99.90;;;;;;5054151;28;20075;-77
2021/01/27 03:00:30;;;;;;;13.70;6.05;;;3.10;99.90;;;;;;5053647;28;20021;-75
2021/01/27 03:03:17;;;;;;;13.23;6.75;;;3.10;99.90;;;;;;5053745;28;20120;-77
2021/01/27 03:05:51;;;;;;;10.60;7.00;;;3.10;99.90;;;;;;5053969;28;20039;-76
2021/01/27 03:08:28;;;;;;;9.57;6.00;;;3.00;99.90;;;;;;5053832;28;20036;-76
2021/01/27 03:11:09;;;;;;;9.43;6.22;;;3.00;99.90;;;;;;5053551;28;20438;-77
2021/01/27 03:13:37;;;;;;;10.40;6.40;;;2.90;99.90;;;;;;5053917;28;20067;-76
2021/01/27 03:16:07;;;;;;;9.57;6.68;;;3.00;99.90;;;;;;5053756;28;20318;-76
2021/01/27 03:18:36;;;;;;;9.38;5.93;;;3.00;99.90;;;;;;5067554;28;20468;-75
2021/01/27 03:21:10;;;;;;;8.30;6.03;;;3.10;99.90;;;;;;5053650;28;20378;-79
2021/01/27 03:23:42;;;;;;;8.20;6.00;;;3.10;99.90;;;;;;5035546;28;20025;-75
2021/01/27 03:26:19;;;;;;;15.63;5.30;;;3.10;99.90;;;;;;5054023;28;20049;-76
2021/01/27 03:28:59;;;;;;;7.50;6.05;;;3.20;99.90;;;;;;5035996;28;20029;-75
2021/01/27 03:31:25;;;;;;;10.43;6.30;;;3.20;99.90;;;;;;5054042;28;20017;-76
2021/01/27 03:34:12;;;;;;;11.38;6.30;;;3.10;99.90;;;;;;5053879;28;20021;-80
2021/01/27 03:36:45;;;;;;;7.80;5.88;;;3.10;99.90;;;;;;5053615;28;20047;-77
2021/01/27 03:39:14;;;;;;;7.80;5.80;;;3.10;99.90;;;;;;5053424;28;20521;-79
2021/01/27 03:41:51;;;;;;;8.77;5.70;;;3.00;99.90;;;;;;5053366;28;20032;-76
2021/01/27 03:44:35;;;;;;;9.00;5.97;;;3.00;99.90;;;;;;5053261;28;20028;-76
2021/01/27 03:47:08;;;;;;;10.63;7.35;;;3.00;99.90;;;;;;5053522;28;20017;-76
2021/01/27 03:49:40;;;;;;;8.65;5.53;;;3.10;99.90;;;;;;5052738;28;20210;-76
2021/01/27 03:52:29;;;;;;;9.30;5.43;;;3.00;99.90;;;;;;5053160;28;20021;-76
2021/01/27 03:55:04;;;;;;;10.35;5.55;;;3.10;99.90;;;;;;5053209;28;20044;-77
2021/01/27 03:57:38;;;;;;;9.85;6.18;;;3.10;99.90;;;;;;5051379;28;20075;-76
2021/01/27 04:00:08;;;;;;;10.18;6.88;;;3.10;99.90;;;;;;5053116;28;20704;-75
2021/01/27 04:02:34;;;;;;;10.30;6.00;;;3.10;99.90;;;;;;5052803;28;20639;-76
2021/01/27 04:05:00;;;;;;;7.18;5.57;;;3.10;99.90;;;;;;5035085;28;20070;-77
2021/01/27 04:07:25;;;;;;;9.20;5.72;;;3.00;99.90;;;;;;5052068;28;20028;-76
2021/01/27 04:09:51;;;;;;;11.05;5.63;;;2.90;99.90;;;;;;5052666;28;20025;-76
2021/01/27 04:12:17;;;;;;;8.00;5.50;;;2.80;99.90;;;;;;5052325;28;20033;-77
2021/01/27 04:14:43;;;;;;;11.43;6.00;;;2.80;99.90;;;;;;5052441;28;20044;-76
2021/01/27 04:17:24;;;;;;;8.65;5.57;;;2.80;99.90;;;;;;5052096;28;20024;-76
2021/01/27 04:19:50;;;;;;;7.65;5.50;;;2.80;99.90;;;;;;5052093;28;20029;-80
2021/01/27 04:22:15;;;;;;;11.65;6.78;;;2.80;99.90;;;;;;5052368;28;20017;-76
2021/01/27 04:24:43;;;;;;;10.85;5.72;;;2.90;99.90;;;;;;5053146;28;20082;-77
2021/01/27 04:27:09;;;;;;;8.43;6.07;;;2.90;99.90;;;;;;5052277;28;20029;-76
2021/01/27 04:29:34;;;;;;;9.68;5.32;;;2.90;99.90;;;;;;5052453;28;20355;-76
2021/01/27 04:32:00;;;;;;;8.63;6.18;;;3.00;99.90;;;;;;5052058;28;20029;-78
2021/01/27 04:34:26;;;;;;;12.63;6.18;;;3.10;99.90;;;;;;5052796;28;20064;-77
2021/01/27 04:36:51;;;;;;;7.05;5.50;;;3.10;99.90;;;;;;5052399;28;20039;-76
2021/01/27 04:39:17;;;;;;;8.20;5.78;;;3.20;99.90;;;;;;5052634;28;20377;-76
2021/01/27 04:41:43;;;;;;;9.98;6.22;;;3.10;99.90;;;;;;5052242;28;20116;-76
2021/01/27 04:44:09;;;;;;;10.13;5.65;;;3.00;99.90;;;;;;5052352;28;20028;-76
2021/01/27 04:46:53;;;;;;;7.53;5.55;;;3.00;99.90;;;;;;5052733;28;20017;-76
2021/01/27 04:49:23;;;;;;;12.75;5.80;;;3.00;99.90;;;;;;5052129;28;20433;-76
2021/01/27 04:51:58;;;;;;;8.20;5.68;;;3.00;99.90;;;;;;5051966;28;20045;-76
2021/01/27 04:54:42;;;;;;;11.60;5.82;;;3.10;99.90;;;;;;5052210;28;20021;-76
2021/01/27 04:57:19;;;;;;;9.02;5.43;;;3.10;99.90;;;;;;5052698;28;20064;-77
2021/01/27 05:00:00;;;;;;;14.80;5.72;;;3.10;99.90;;;;;;5038894;28;20083;-75
2021/01/27 05:03:01;;;;;;;8.68;5.72;;;3.10;99.90;;;;;;5051626;28;20029;-75
2021/01/27 05:05:36;;;;;;;9.32;5.20;;;3.20;99.90;;;;;;5034260;28;20021;-76
2021/01/27 05:08:09;;;;;;;16.65;5.38;;;3.20;99.90;;;;;;5051769;28;20024;-77
2021/01/27 05:10:43;;;;;;;9.52;5.43;;;3.20;99.90;;;;;;5050769;28;20021;-76
2021/01/27 05:13:38;;;;;;;9.18;6.72;;;3.20;99.90;;;;;;5054347;28;20111;-76
2021/01/27 05:16:10;;;;;;;11.60;6.72;;;3.20;99.90;;;;;;5053047;28;20437;-78
2021/01/27 05:18:35;;;;;;;;;;;3.20;99.90;;;;;;5052746;28;20043;-78
2021/01/27 05:21:02;;;;;;;10.15;5.55;;;3.10;99.90;;;;;;5052099;28;19905;-79
2021/01/27 05:23:28;;;;;;;8.55;5.43;;;3.10;99.90;;;;;;5052232;28;20466;-77
2021/01/27 05:26:06;;;;;;;10.00;5.68;;;3.10;99.90;;;;;;5052704;28;20124;-77
2021/01/27 05:28:39;;;;;;;9.98;6.35;;;3.10;99.90;;;;;;5052770;28;20020;-77
2021/01/27 05:31:04;;;;;;;12.65;7.00;;;3.10;99.90;;;;;;5048047;28;20079;-76
2021/01/27 05:33:56;;;;;;;12.55;5.97;;;3.10;99.90;;;;;;5033978;28;20032;-76
2021/01/27 05:36:27;;;;;;;8.90;6.05;;;3.10;99.90;;;;;;5047948;28;20032;-77
2021/01/27 05:39:13;;;;;;;9.40;6.13;;;3.10;99.90;;;;;;5051379;28;20535;-76
2021/01/27 05:41:39;;;;;;;13.25;6.18;;;3.10;99.90;;;;;;5051530;28;20385;-77
2021/01/27 05:44:13;;;;;;;9.88;6.45;;;3.00;99.90;;;;;;5051480;28;20025;-76
2021/01/27 05:46:40;;;;;;;13.43;6.60;;;2.90;99.90;;;;;;5051685;28;20493;-76
2021/01/27 05:49:27;;;;;;;13.63;6.68;;;2.90;99.90;;;;;;5033170;28;20510;-77
2021/01/27 05:51:52;;;;;;;10.52;6.63;;;2.90;99.90;;;;;;5051238;28;20378;-77
2021/01/27 05:54:25;;;;;;;12.50;6.45;;;2.90;99.90;;;;;;5050876;28;20028;-76
2021/01/27 05:56:54;;;;;;;14.82;6.15;;;2.90;99.90;;;;;;5051325;28;20533;-77
2021/01/27 05:59:26;;;;;;;13.25;6.43;;;2.90;99.90;;;;;;5051302;28;20492;-77
2021/01/27 06:02:00;;;;;;;13.48;7.28;;;2.90;99.90;;;;;;5051218;28;20374;-77
2021/01/27 06:04:28;;;;;;;12.20;6.57;;;2.90;99.90;;;;;;5051465;28;20033;-76
2021/01/27 06:06:54;;;;;;;12.85;7.60;;;2.90;99.90;;;;;;5051102;28;20112;-76
2021/01/27 06:09:50;;;;;;;13.52;7.00;;;2.80;99.90;;;;;;5051395;28;20100;-76
2021/01/27 06:12:18;;;;;;;13.35;7.00;;;2.80;99.90;;;;;;5007278;28;20040;-76
2021/01/27 06:14:48;;;;;;;9.52;6.78;;;2.70;99.90;;;;;;5065107;28;20028;-77
2021/01/27 06:17:27;;;;;;;17.92;7.03;;;2.60;99.90;;;;;;5050975;28;20388;-76
2021/01/27 06:20:13;;;;;;;11.50;6.75;;;2.60;99.90;;;;;;5050401;28;20549;-77
2021/01/27 06:22:51;;;;;;;17.00;7.85;;;2.60;99.90;;;;;;5043064;28;20032;-76
2021/01/27 06:25:40;;;;;;;10.07;6.60;;;2.60;99.90;;;;;;5050751;28;20678;-76
2021/01/27 06:28:22;;;;;;;14.93;6.45;;;2.60;99.90;;;;;;5056776;28;20017;-77
2021/01/27 06:31:10;;;;;;;13.18;7.10;;;2.60;99.90;;;;;;5042298;28;20469;-75
2021/01/27 06:34:04;;;;;;;12.38;6.30;;;2.60;99.90;;;;;;5064226;28;20029;-76
2021/01/27 06:36:51;;;;;;;13.77;7.30;;;2.70;99.90;;;;;;5054438;28;20111;-75
2021/01/27 06:39:36;;;;;;;10.10;6.72;;;2.70;99.90;;;;;;5035941;28;20021;-77
2021/01/27 06:42:46;;;;;;;13.25;7.20;;;2.70;99.90;;;;;;5054629;28;20070;-78
2021/01/27 06:45:37;;;;;;;13.40;6.20;;;2.70;99.90;;;;;;5037258;28;20521;-76
2021/01/27 06:48:22;;;;;;;14.32;7.22;;;2.70;99.90;;;;;;5048606;28;20151;-77
2021/01/27 06:51:06;;;;;;;15.15;6.72;;;2.80;99.90;;;;;;5030206;28;20156;-76
2021/01/27 06:54:08;;;;;;;16.10;7.28;;;2.80;99.90;;;;;;5034655;28;20010;-76
2021/01/27 06:57:08;;;;;;;13.77;8.15;;;2.90;99.90;;;;;;5050451;28;20029;-76
2021/01/27 06:59:59;;;;;;;15.60;7.22;;;3.00;99.90;;;;;;4975440;28;20051;-77
2021/01/27 07:02:58;;;;;;;20.13;7.97;;;3.10;99.90;;;;;;5042833;28;20029;-76
2021/01/27 07:05:43;;;;;;;21.10;7.90;;;3.10;99.90;;;;;;5050821;28;20032;-76
2021/01/27 07:08:22;;;;;;;18.25;7.38;;;3.10;99.90;;;;;;5051009;28;20051;-76
2021/01/27 07:10:54;;;;;;;15.20;6.88;;;3.10;99.90;;;;;;5052240;28;20028;-76
2021/01/27 07:13:51;;;;;;;13.07;6.38;;;3.10;99.90;;;;;;5039271;28;20021;-77
2021/01/27 07:16:55;;;;;;;10.82;6.57;;;3.50;99.90;;;;;;5048756;28;20461;-77
2021/01/27 07:19:31;;;;;;;15.07;7.10;;;3.90;99.90;;;;;;5017588;28;20053;-77
2021/01/27 07:22:14;;;;;;;16.63;7.47;;;4.20;99.90;;;;;;5042954;28;20128;-77
2021/01/27 07:25:12;;;;;;;18.70;7.40;;;4.50;99.90;;;;;;5036608;28;20466;-77
2021/01/27 07:28:01;;;;;;;17.08;7.38;;;5.00;99.90;;;;;;5039023;28;20041;-77
2021/01/27 07:30:55;;;;;;;25.23;6.53;;;5.50;99.90;;;;;;5032998;28;20060;-78
2021/01/27 07:33:36;;;;;;;7.55;4.68;;;6.00;99.90;;;;;;5031773;28;20040;-78
2021/01/27 07:36:33;;;;;;;10.95;6.50;;;6.60;99.90;;;;;;5029693;28;20022;-77
2021/01/27 07:39:03;;;;;;;12.23;5.65;;;7.00;99.90;;;;;;5041888;28;20095;-78
2021/01/27 07:41:44;;;;;;;13.73;6.13;;;7.30;99.90;;;;;;5050694;28;20022;-78
2021/01/27 07:44:15;;;;;;;14.10;5.53;;;7.60;99.90;;;;;;5040936;28;20080;-78
2021/01/27 07:46:50;;;;;;;7.43;4.97;;;8.00;99.90;;;;;;5048073;28;20389;-78
2021/01/27 07:49:26;;;;;;;9.10;4.43;;;8.10;99.90;;;;;;5043922;28;20045;-77
2021/01/27 07:51:59;;;;;;;9.50;4.57;;;8.00;99.90;;;;;;5033253;28;20132;-78
2021/01/27 07:54:49;;;;;;;9.07;4.72;;;7.80;99.90;;;;;;5031908;28;20034;-77
2021/01/27 07:57:36;;;;;;;10.55;5.05;;;7.80;99.90;;;;;;5023026;28;20109;-78
2021/01/27 08:00:16;;;;;;;12.85;4.40;;;8.10;99.70;;;;;;5030678;28;20104;-78
2021/01/27 08:03:27;;;;;;;11.20;4.15;;;8.80;98.10;;;;;;5025816;28;20022;-78
2021/01/27 08:06:07;;;;;;;6.47;4.63;;;9.50;95.80;;;;;;5022862;28;20044;-78
2021/01/27 08:08:55;;;;;;;11.05;4.38;;;10.00;95.00;;;;;;5029500;28;20751;-77
2021/01/27 08:11:33;;;;;;;15.35;4.63;;;10.80;94.10;;;;;;5030175;28;20067;-76
2021/01/27 08:13:59;;;;;;;11.77;4.35;;;11.50;92.40;;;;;;5032095;28;20083;-80
2021/01/27 08:16:27;;;;;;;18.50;5.05;;;12.00;90.60;;;;;;5031613;28;20026;-77
2021/01/27 08:19:11;;;;;;;13.88;5.82;;;12.50;90.10;;;;;;5013567;28;20063;-78
2021/01/27 08:21:45;;;;;;;9.75;5.10;;;13.20;89.90;;;;;;5028651;28;20021;-77
2021/01/27 08:24:36;;;;;;;10.80;3.95;;;14.10;84.60;;;;;;5030319;28;20034;-79
2021/01/27 08:27:29;;;;;;;7.35;3.42;;;14.20;80.00;;;;;;5026240;28;20025;-80
2021/01/27 08:29:55;;;;;;;7.15;3.05;;;14.20;77.70;;;;;;5025394;28;20553;-81
2021/01/27 08:32:40;;;;;;;12.38;3.53;;;14.40;76.70;;;;;;5026699;28;20026;-80
2021/01/27 08:35:24;;;;;;;13.95;4.45;;;14.60;73.70;;;;;;5027035;28;20478;-80
2021/01/27 08:38:24;;;;;;;5.45;3.25;;;14.80;74.60;;;;;;5012571;28;20026;-80
2021/01/27 08:40:50;;;;;;;6.78;3.58;;;15.00;72.90;;;;;;5026265;28;20405;-81
2021/01/27 08:43:16;;;;;;;6.85;3.60;;;15.00;71.90;;;;;;5028838;28;20031;-81
2021/01/27 08:45:45;;;;;;;16.73;4.00;;;15.20;71.40;;;;;;5030533;28;20341;-81
2021/01/27 08:48:14;;;;;;;14.50;4.20;;;15.40;72.20;;;;;;5022245;28;20657;-82
2021/01/27 08:50:47;;;;;;;14.25;4.43;;;16.10;70.70;;;;;;5039659;28;20505;-85
2021/01/27 08:53:35;;;;;;;12.75;4.63;;;16.60;69.40;;;;;;5065963;28;20549;-80
2021/01/27 08:56:01;;;;;;;16.60;6.53;;;17.30;67.90;;;;;;5050652;28;20032;-81
2021/01/27 08:58:35;;;;;;;10.07;5.18;;;17.90;67.10;;;;;;5062926;28;20123;-80
2021/01/27 09:01:09;;;;;;;22.23;4.95;;;18.20;64.40;;;;;;5064702;28;20017;-79
2021/01/27 09:03:37;;;;;;;11.95;3.92;;;17.90;61.80;;;;;;5068774;28;20421;-80
2021/01/27 09:06:20;;;;;;;7.60;3.65;;;17.60;61.40;;;;;;5066315;28;20028;-80
2021/01/27 09:08:46;;;;;;;8.65;3.60;;;17.30;61.40;;;;;;5068159;28;20107;-77
2021/01/27 09:11:15;;;;;;;12.07;3.75;;;17.00;65.20;;;;;;5065961;28;20322;-79
2021/01/27 09:13:44;;;;;;;7.45;3.85;;;16.70;65.50;;;;;;5048983;28;20021;-79
2021/01/27 09:16:19;;;;;;;10.07;3.92;;;16.50;64.60;;;;;;5064637;28;20025;-80
2021/01/27 09:19:13;;;;;;;6.90;4.18;;;16.50;65.40;;;;;;5041842;28;20043;-80
2021/01/27 09:21:40;;;;;;;7.03;4.40;;;16.70;69.30;;;;;;5033335;28;20021;-80
2021/01/27 09:24:22;;;;;;;8.80;4.88;;;16.90;68.10;;;;;;5056184;28;20025;-80
2021/01/27 09:26:50;;;;;;;8.27;4.38;;;17.20;66.50;;;;;;5070349;28;20032;-80
2021/01/27 09:29:24;;;;;;;10.43;5.40;;;17.80;67.60;;;;;;5061519;28;20025;-81
2021/01/27 09:31:51;;;;;;;11.85;7.38;;;18.60;71.10;;;;;;5068058;28;20450;-79
2021/01/27 09:34:32;;;;;;;6.63;5.50;;;18.60;74.40;;;;;;5067982;28;20524;-79
2021/01/27 09:36:58;;;;;;;;;;;19.30;74.40;;;;;;5064919;28;20682;-82
2021/01/27 09:39:28;;;;;;;7.05;4.88;;;19.90;73.80;;;;;;5065999;28;19913;-82
2021/01/27 09:41:57;;;;;;;8.63;4.90;;;20.70;73.00;;;;;;5068739;28;20366;-82
2021/01/27 09:44:36;;;;;;;8.68;5.28;;;21.20;71.40;;;;;;5066654;28;20017;-81
2021/01/27 09:47:07;;;;;;;8.68;5.20;;;20.50;71.80;;;;;;5023588;28;20038;-82
2021/01/27 09:49:39;;;;;;;8.18;5.72;;;19.60;73.00;;;;;;5067299;28;20017;-82
2021/01/27 09:52:09;;;;;;;7.85;5.90;;;18.50;74.80;;;;;;5064506;28;20047;-80
2021/01/27 09:54:37;;;;;;;11.23;6.13;;;17.60;76.60;;;;;;5068322;28;20484;-80
2021/01/27 09:57:04;;;;;;;12.07;6.50;;;17.00;78.20;;;;;;5064247;28;20067;-80
2021/01/27 09:59:31;;;;;;;9.82;6.15;;;16.40;80.50;;;;;;5067143;28;20037;-82
2021/01/27 10:01:57;;;;;;;10.75;6.72;;;15.90;81.80;;;;;;5062690;28;20092;-81
2021/01/27 10:04:33;;;;;;;9.32;6.45;;;15.60;83.30;;;;;;5070849;28;20033;-82
2021/01/27 10:07:08;;;;;;;9.68;6.30;;;15.50;83.40;;;;;;5043973;28;20035;-83
2021/01/27 10:09:51;;;;;;;9.75;6.28;;;15.80;83.30;;;;;;5057914;28;20036;-85
2021/01/27 10:12:26;;;;;;;10.55;5.18;;;16.10;81.40;;;;;;5055520;28;20537;-83
2021/01/27 10:15:04;;;;;;;16.25;6.97;;;15.90;78.30;;;;;;5050016;28;20062;-82
2021/01/27 10:17:31;;;;;;;18.08;6.07;;;15.70;77.80;;;;;;5067414;28;20031;-81
2021/01/27 10:20:05;;;;;;;15.27;6.10;;;16.40;77.00;;;;;;5062623;28;20484;-81
2021/01/27 10:22:37;;;;;;;14.73;6.57;;;17.80;74.20;;;;;;5065937;28;20417;-80
2021/01/27 10:25:23;;;;;;;20.10;6.60;;;19.30;71.90;;;;;;5064218;28;20089;-80
2021/01/27 10:28:10;;;;;;;12.55;6.22;;;20.40;68.00;;;;;;5054084;28;20070;-83
2021/01/27 10:30:46;;;;;;;13.20;5.93;;;21.70;65.90;;;;;;5072690;28;20037;-81
2021/01/27 10:33:31;;;;;;;10.27;5.90;;;22.30;64.40;;;;;;5052842;28;20372;-82
2021/01/27 10:35:58;;;;;;;18.00;6.88;;;23.00;62.40;;;;;;5069623;28;20036;-76
2021/01/27 10:38:25;;;;;;;8.15;6.45;;;22.90;61.10;;;;;;5050896;28;20039;-80
2021/01/27 10:41:08;;;;;;;10.13;6.85;;;22.80;59.20;;;;;;5068653;28;20095;-79
2021/01/27 10:43:34;;;;;;;12.93;7.00;;;21.90;60.30;;;;;;5053830;28;20481;-78
2021/01/27 10:45:59;;;;;;;10.20;7.32;;;21.00;63.30;;;;;;5055645;28;20079;-79
2021/01/27 10:48:30;;;;;;;15.00;8.25;;;20.90;64.10;;;;;;5058390;28;20074;-80
2021/01/27 10:51:09;;;;;;;14.27;7.38;;;21.30;63.70;;;;;;5050936;28;20051;-78
2021/01/27 10:53:35;;;;;;;9.88;7.03;;;21.60;63.00;;;;;;5049546;28;20021;-79
2021/01/27 10:56:01;;;;;;;15.07;7.78;;;21.40;63.70;;;;;;5054229;28;20029;-78
2021/01/27 10:58:27;;;;;;;14.05;8.35;;;21.30;64.50;;;;;;5054310;28;20531;-79
2021/01/27 11:00:52;;;;;;;14.75;6.93;;;21.30;64.90;;;;;;5054500;28;20021;-78
2021/01/27 11:03:18;;;;;;;11.88;7.40;;;21.40;65.30;;;;;;5053090;28;20075;-78
2021/01/27 11:05:44;;;;;;;12.65;8.50;;;22.00;65.10;;;;;;5052256;28;20142;-79
2021/01/27 11:08:13;;;;;;;11.95;8.50;;;22.20;63.80;;;;;;5036431;28;20120;-79
2021/01/27 11:10:40;;;;;;;13.13;9.27;;;21.90;63.20;;;;;;5053858;28;20017;-78
2021/01/27 11:13:05;;;;;;;11.75;8.63;;;20.90;64.30;;;;;;5053745;28;20107;-79
2021/01/27 11:15:31;;;;;;;13.57;9.48;;;20.10;66.30;;;;;;5053716;28;20244;-78
2021/01/27 11:17:57;;;;;;;17.35;9.05;;;19.30;67.60;;;;;;5054394;28;20033;-79
2021/01/27 11:20:24;;;;;;;12.60;8.38;;;18.80;67.90;;;;;;5055752;28;20381;-78
2021/01/27 11:22:51;;;;;;;12.75;8.48;;;18.50;67.50;;;;;;5053180;28;20032;-77
2021/01/27 11:25:25;;;;;;;14.68;9.23;;;18.20;67.80;;;;;;5051737;28;20023;-79
2021/01/27 11:27:51;;;;;;;13.23;8.88;;;18.00;69.10;;;;;;5065548;28;20029;-79
2021/01/27 11:30:20;;;;;;;16.17;9.63;;;17.60;70.20;;;;;;5072006;28;20103;-79
2021/01/27 11:32:46;;;;;;;15.50;9.02;;;17.10;71.50;;;;;;5070526;28;20039;-79
2021/01/27 11:35:13;;;;;;;15.93;9.90;;;16.90;72.10;;;;;;5070718;28;20074;-79
2021/01/27 11:37:38;;;;;;;15.15;9.32;;;16.90;70.80;;;;;;5066184;28;20040;-78
2021/01/27 11:40:06;;;;;;;12.43;8.60;;;17.20;70.00;;;;;;5067783;28;20381;-78
2021/01/27 11:42:31;;;;;;;13.00;8.90;;;17.50;69.00;;;;;;5070160;28;20024;-78
2021/01/27 11:44:57;;;;;;;13.63;8.57;;;17.20;69.40;;;;;;5060862;28;20470;-78
2021/01/27 11:47:23;;;;;;;13.80;8.68;;;17.20;70.60;;;;;;5056408;28;20040;-80
2021/01/27 11:49:49;;;;;;;12.77;8.55;;;17.10;70.40;;;;;;5043950;28;20013;-79
2021/01/27 11:52:16;;;;;;;18.10;8.88;;;16.80;72.00;;;;;;5067815;28;20053;-78
2021/01/27 11:54:42;;;;;;;14.20;9.13;;;16.50;71.90;;;;;;5051329;28;20043;-77
2021/01/27 11:57:08;;;;;;;13.70;8.55;;;16.20;72.70;;;;;;5068718;28;20021;-79
2021/01/27 11:59:35;;;;;;;15.15;7.45;;;16.20;73.00;;;;;;5050358;28;20107;-78
2021/01/27 12:02:02;;;;;;;16.10;7.88;;;15.90;69.40;;;;;;5041687;28;20016;-78
2021/01/27 12:04:27;;;;;;;17.02;8.18;;;15.70;70.90;;;;;;5051401;28;20417;-79
2021/01/27 12:06:53;;;;;;;12.35;7.95;;;15.60;71.30;;;;;;5064963;28;20052;-79
2021/01/27 12:09:19;;;;;;;12.95;8.25;;;15.40;71.20;;;;;;5045847;28;20025;-79
2021/01/27 12:11:45;;;;;;;12.18;7.65;;;15.30;70.30;;;;;;5043882;28;20440;-80
2021/01/27 12:14:11;;;;;;;11.63;7.78;;;15.10;71.00;;;;;;5035660;28;20083;-80
2021/01/27 12:16:37;;;;;;;14.88;7.50;;;15.00;70.90;;;;;;5047975;28;20029;-79
2021/01/27 12:19:03;;;;;;;10.32;6.70;;;14.90;69.70;;;;;;5049446;28;20397;-80
2021/01/27 12:21:28;;;;;;;10.98;7.55;;;14.60;70.20;;;;;;5039857;28;20427;-78
2021/01/27 12:23:54;;;;;;;18.35;7.85;;;14.30;71.30;;;;;;5051738;28;20047;-79
2021/01/27 12:26:20;;;;;;;12.18;6.80;;;14.10;72.60;;;;;;5056093;28;20051;-78
2021/01/27 12:28:46;;;;;;;14.90;7.50;;;14.00;71.50;;;;;;5058586;28;20083;-79
2021/01/27 12:31:12;;;;;;;22.20;12.27;;;13.80;73.30;;;;;;5068244;28;20033;-79
2021/01/27 12:33:39;;;;;;;13.25;9.05;;;13.70;74.80;;;;;;5042934;28;20035;-79
2021/01/27 12:36:06;;;;;;;12.40;7.53;;;13.50;75.70;;;;;;5043665;28;20083;-82
2021/01/27 12:38:32;;;;;;;14.10;7.40;;;13.40;75.00;;;;;;5062118;28;20102;-79
2021/01/27 12:40:59;;;;;;;17.00;7.43;;;13.30;75.80;;;;;;5051940;28;20423;-79
2021/01/27 12:43:25;;;;;;;12.40;8.20;;;13.10;76.20;;;;;;5052258;28;20540;-80
2021/01/27 12:45:50;;;;;;;16.10;7.40;;;13.00;75.70;;;;;;5069179;28;20119;-79
2021/01/27 12:48:16;;;;;;;10.45;6.50;;;12.90;75.70;;;;;;5070488;28;20074;-79
2021/01/27 12:50:42;;;;;;;11.00;7.60;;;12.80;74.30;;;;;;5063060;28;20045;-79
2021/01/27 12:53:07;;;;;;;18.60;7.22;;;12.80;76.50;;;;;;5066056;28;20029;-79
2021/01/27 12:55:33;;;;;;;15.35;8.32;;;12.80;77.50;;;;;;5068103;28;20412;-80
2021/01/27 12:58:00;;;;;;;17.42;8.50;;;12.80;76.90;;;;;;5068000;28;20118;-82
2021/01/27 13:00:28;;;;;;;15.55;7.75;;;12.70;76.20;;;;;;5048339;28;20042;-80
2021/01/27 13:02:55;;;;;;;35.08;7.63;;;12.60;76.50;;;;;;5051742;28;20031;-79
2021/01/27 13:05:22;;;;;;;14.85;6.90;;;12.60;78.30;;;;;;5069399;28;20013;-79
2021/01/27 13:07:48;;;;;;;11.80;5.95;;;12.50;74.80;;;;;;5049368;28;20036;-78
2021/01/27 13:10:16;;;;;;;9.27;6.38;;;12.40;74.50;;;;;;5046988;28;20024;-78
2021/01/27 13:12:43;;;;;;;19.00;6.63;;;12.40;74.90;;;;;;5050529;28;20081;-79
2021/01/27 13:15:12;;;;;;;13.00;6.63;;;12.30;74.30;;;;;;5067757;28;20040;-78
2021/01/27 13:17:39;;;;;;;9.63;5.18;;;12.30;72.90;;;;;;5067203;28;20154;-79